sensor_id;sensor_type;location;lat;lon;timestamp;temperature;humidity
18876;DHT22;9570;50.854;13.778;2023-03-20T00:01:16;10.10;99.90
18876;DHT22;9570;50.854;13.778;2023-03-20T00:03:42;10.00;99.90
18876;DHT22;9570;50.854;13.778;2023-03-20T00:06:19;10.00;99.90
18876;DHT22;9570;50.854;13.778;2023-03-20T00:08:47;9.90;99.90
18876;DHT22;9570;50.854;13.778;2023-03-20T00:12:01;10.00;99.90
18876;DHT22;9570;50.854;13.778;2023-03-20T00:14:23;9.90;99.90
18876;DHT22;9570;50.854;13.778;2023-03-20T00:16:49;10.00;99.90
18876;DHT22;9570;50.854;13.778;2023-03-20T00:19:16;9.80;99.90
18876;DHT22;9570;50.854;13.778;2023-03-20T00:21:43;9.80;99.90
18876;DHT22;9570;50.854;13.778;2023-03-20T00:24:10;9.80;99.90
18876;DHT22;9570;50.854;13.778;2023-03-20T00:26:35;9.90;99.90
18876;DHT22;9570;50.854;13.778;2023-03-20T00:29:03;9.90;99.90
18876;DHT22;9570;50.854;13.778;2023-03-20T00:31:37;9.90;99.90
18876;DHT22;9570;50.854;13.778;2023-03-20T00:34:09;9.90;99.90
18876;DHT22;9570;50.854;13.778;2023-03-20T00:36:36;10.00;99.90
18876;DHT22;9570;50.854;13.778;2023-03-20T00:39:01;9.80;99.90
18876;DHT22;9570;50.854;13.778;2023-03-20T00:41:28;9.70;99.90
18876;DHT22;9570;50.854;13.778;2023-03-20T00:46:48;10.00;99.90
18876;DHT22;9570;50.854;13.778;2023-03-20T00:49:14;10.00;99.90
18876;DHT22;9570;50.854;13.778;2023-03-20T00:51:40;10.10;99.90
18876;DHT22;9570;50.854;13.778;2023-03-20T00:54:14;10.10;99.90
18876;DHT22;9570;50.854;13.778;2023-03-20T00:56:43;10.20;99.90
18876;DHT22;9570;50.854;13.778;2023-03-20T00:59:16;10.30;99.90
18876;DHT22;9570;50.854;13.778;2023-03-20T01:01:43;10.40;99.90
18876;DHT22;9570;50.854;13.778;2023-03-20T01:04:14;10.50;99.90
18876;DHT22;9570;50.854;13.778;2023-03-20T01:06:40;10.60;99.90
18876;DHT22;9570;50.854;13.778;2023-03-20T01:09:06;10.60;99.90
18876;DHT22;9570;50.854;13.778;2023-03-20T01:11:32;10.60;99.90
18876;DHT22;9570;50.854;13.778;2023-03-20T01:13:57;10.60;99.90
18876;DHT22;9570;50.854;13.778;2023-03-20T01:16:25;10.70;99.90
18876;DHT22;9570;50.854;13.778;2023-03-20T01:18:51;10.70;99.90
18876;DHT22;9570;50.854;13.778;2023-03-20T01:21:18;10.60;99.90
18876;DHT22;9570;50.854;13.778;2023-03-20T01:23:44;10.60;99.90
18876;DHT22;9570;50.854;13.778;2023-03-20T01:26:35;10.60;99.90
18876;DHT22;9570;50.854;13.778;2023-03-20T01:29:01;10.60;99.90
18876;DHT22;9570;50.854;13.778;2023-03-20T01:31:26;10.60;99.90
18876;DHT22;9570;50.854;13.778;2023-03-20T01:33:52;10.60;99.90
18876;DHT22;9570;50.854;13.778;2023-03-20T01:36:21;10.60;99.90
18876;DHT22;9570;50.854;13.778;2023-03-20T01:38:53;10.70;99.90
18876;DHT22;9570;50.854;13.778;2023-03-20T01:41:19;10.70;99.90
18876;DHT22;9570;50.854;13.778;2023-03-20T01:43:45;10.70;99.90
18876;DHT22;9570;50.854;13.778;2023-03-20T01:51:17;10.60;99.90
18876;DHT22;9570;50.854;13.778;2023-03-20T01:53:44;10.50;99.90
18876;DHT22;9570;50.854;13.778;2023-03-20T01:56:12;10.50;99.90
18876;DHT22;9570;50.854;13.778;2023-03-20T01:58:42;10.50;99.90
18876;DHT22;9570;50.854;13.778;2023-03-20T02:01:11;10.40;99.90
18876;DHT22;9570;50.854;13.778;2023-03-20T02:03:39;10.40;99.90
18876;DHT22;9570;50.854;13.778;2023-03-20T02:06:07;10.30;99.90
18876;DHT22;9570;50.854;13.778;2023-03-20T02:08:37;10.30;99.90
18876;DHT22;9570;50.854;13.778;2023-03-20T02:11:06;10.20;99.90
18876;DHT22;9570;50.854;13.778;2023-03-20T02:13:32;10.20;99.90
18876;DHT22;9570;50.854;13.778;2023-03-20T02:18:34;10.20;99.90
18876;DHT22;9570;50.854;13.778;2023-03-20T02:26:40;10.20;99.90
18876;DHT22;9570;50.854;13.778;2023-03-20T02:29:29;10.20;99.90
18876;DHT22;9570;50.854;13.778;2023-03-20T02:32:37;10.20;99.90
18876;DHT22;9570;50.854;13.778;2023-03-20T02:35:17;10.30;99.90
18876;DHT22;9570;50.854;13.778;2023-03-20T02:38:19;10.40;99.90
18876;DHT22;9570;50.854;13.778;2023-03-20T02:43:36;10.40;99.90
18876;DHT22;9570;50.854;13.778;2023-03-20T02:46:15;10.40;99.90
18876;DHT22;9570;50.854;13.778;2023-03-20T02:48:58;10.40;99.90
18876;DHT22;9570;50.854;13.778;2023-03-20T02:52:10;10.50;99.90
18876;DHT22;9570;50.854;13.778;2023-03-20T02:54:56;10.40;99.90
18876;DHT22;9570;50.854;13.778;2023-03-20T03:00:27;10.50;99.90
18876;DHT22;9570;50.854;13.778;2023-03-20T03:03:05;10.50;99.90
18876;DHT22;9570;50.854;13.778;2023-03-20T03:05:56;10.70;99.90
18876;DHT22;9570;50.854;13.778;2023-03-20T03:08:24;10.80;99.90
18876;DHT22;9570;50.854;13.778;2023-03-20T03:11:04;10.60;99.90
18876;DHT22;9570;50.854;13.778;2023-03-20T03:13:33;10.60;99.90
18876;DHT22;9570;50.854;13.778;2023-03-20T03:16:12;10.60;99.90
18876;DHT22;9570;50.854;13.778;2023-03-20T03:18:40;10.70;99.90
18876;DHT22;9570;50.854;13.778;2023-03-20T03:21:08;10.70;99.90
18876;DHT22;9570;50.854;13.778;2023-03-20T03:23:41;10.80;99.90
18876;DHT22;9570;50.854;13.778;2023-03-20T03:26:14;10.80;99.90
18876;DHT22;9570;50.854;13.778;2023-03-20T03:28:47;10.80;99.90
18876;DHT22;9570;50.854;13.778;2023-03-20T03:31:15;10.80;99.90
18876;DHT22;9570;50.854;13.778;2023-03-20T03:33:44;10.80;99.90
18876;DHT22;9570;50.854;13.778;2023-03-20T03:38:57;10.90;99.90
18876;DHT22;9570;50.854;13.778;2023-03-20T03:41:31;10.90;99.90
18876;DHT22;9570;50.854;13.778;2023-03-20T03:44:15;10.90;99.90
18876;DHT22;9570;50.854;13.778;2023-03-20T03:47:05;11.00;99.90
18876;DHT22;9570;50.854;13.778;2023-03-20T03:49:38;11.00;99.90
18876;DHT22;9570;50.854;13.778;2023-03-20T03:52:10;11.00;99.90
18876;DHT22;9570;50.854;13.778;2023-03-20T03:54:42;11.00;99.90
18876;DHT22;9570;50.854;13.778;2023-03-20T03:57:09;11.00;99.90
18876;DHT22;9570;50.854;13.778;2023-03-20T03:59:40;10.90;99.90
18876;DHT22;9570;50.854;13.778;2023-03-20T04:02:07;10.90;99.90
18876;DHT22;9570;50.854;13.778;2023-03-20T04:04:36;10.80;99.90
18876;DHT22;9570;50.854;13.778;2023-03-20T04:07:03;10.80;99.90
18876;DHT22;9570;50.854;13.778;2023-03-20T04:09:29;10.70;99.90
18876;DHT22;9570;50.854;13.778;2023-03-20T04:11:54;10.60;99.90
18876;DHT22;9570;50.854;13.778;2023-03-20T04:14:20;10.70;99.90
18876;DHT22;9570;50.854;13.778;2023-03-20T04:16:46;10.80;99.90
18876;DHT22;9570;50.854;13.778;2023-03-20T04:19:11;10.90;99.90
18876;DHT22;9570;50.854;13.778;2023-03-20T04:21:37;10.80;99.90
18876;DHT22;9570;50.854;13.778;2023-03-20T04:24:02;10.70;99.90
18876;DHT22;9570;50.854;13.778;2023-03-20T04:26:28;10.80;99.90
18876;DHT22;9570;50.854;13.778;2023-03-20T04:28:53;10.90;99.90
18876;DHT22;9570;50.854;13.778;2023-03-20T04:31:19;10.90;99.90
18876;DHT22;9570;50.854;13.778;2023-03-20T04:33:44;10.80;99.90
18876;DHT22;9570;50.854;13.778;2023-03-20T04:36:11;10.80;99.90
18876;DHT22;9570;50.854;13.778;2023-03-20T04:38:36;10.70;99.90
18876;DHT22;9570;50.854;13.778;2023-03-20T04:41:03;10.80;99.90
18876;DHT22;9570;50.854;13.778;2023-03-20T04:43:28;10.70;99.90
18876;DHT22;9570;50.854;13.778;2023-03-20T04:45:54;10.80;99.90
18876;DHT22;9570;50.854;13.778;2023-03-20T04:48:20;10.80;99.90
18876;DHT22;9570;50.854;13.778;2023-03-20T04:50:45;10.80;99.90
18876;DHT22;9570;50.854;13.778;2023-03-20T04:53:13;10.80;99.90
18876;DHT22;9570;50.854;13.778;2023-03-20T04:55:39;10.80;99.90
18876;DHT22;9570;50.854;13.778;2023-03-20T04:58:04;10.90;99.90
18876;DHT22;9570;50.854;13.778;2023-03-20T05:00:31;10.80;99.90
18876;DHT22;9570;50.854;13.778;2023-03-20T05:02:56;10.80;99.90
18876;DHT22;9570;50.854;13.778;2023-03-20T05:05:22;10.70;99.90
18876;DHT22;9570;50.854;13.778;2023-03-20T05:07:48;10.70;99.90
18876;DHT22;9570;50.854;13.778;2023-03-20T05:10:13;10.80;99.90
18876;DHT22;9570;50.854;13.778;2023-03-20T05:12:39;10.70;99.90
18876;DHT22;9570;50.854;13.778;2023-03-20T05:15:04;10.60;99.90
18876;DHT22;9570;50.854;13.778;2023-03-20T05:17:30;10.60;99.90
18876;DHT22;9570;50.854;13.778;2023-03-20T05:19:56;10.60;99.90
18876;DHT22;9570;50.854;13.778;2023-03-20T05:22:21;10.60;99.90
18876;DHT22;9570;50.854;13.778;2023-03-20T05:24:47;10.60;99.90
18876;DHT22;9570;50.854;13.778;2023-03-20T05:27:12;10.60;99.90
18876;DHT22;9570;50.854;13.778;2023-03-20T05:29:38;10.60;99.90
18876;DHT22;9570;50.854;13.778;2023-03-20T05:32:03;10.50;99.90
18876;DHT22;9570;50.854;13.778;2023-03-20T05:34:29;10.50;99.90
18876;DHT22;9570;50.854;13.778;2023-03-20T05:36:54;10.50;99.90
18876;DHT22;9570;50.854;13.778;2023-03-20T05:39:20;10.50;99.90
18876;DHT22;9570;50.854;13.778;2023-03-20T05:41:46;10.50;99.90
18876;DHT22;9570;50.854;13.778;2023-03-20T05:44:12;10.50;99.90
18876;DHT22;9570;50.854;13.778;2023-03-20T05:46:37;10.60;99.90
18876;DHT22;9570;50.854;13.778;2023-03-20T05:49:03;10.60;99.90
18876;DHT22;9570;50.854;13.778;2023-03-20T05:51:28;10.70;99.90
18876;DHT22;9570;50.854;13.778;2023-03-20T05:53:54;10.70;99.90
18876;DHT22;9570;50.854;13.778;2023-03-20T05:56:19;10.60;99.90
18876;DHT22;9570;50.854;13.778;2023-03-20T05:58:45;10.50;99.90
18876;DHT22;9570;50.854;13.778;2023-03-20T06:01:10;10.60;99.90
18876;DHT22;9570;50.854;13.778;2023-03-20T06:03:36;10.70;99.90
18876;DHT22;9570;50.854;13.778;2023-03-20T06:06:02;10.70;99.90
18876;DHT22;9570;50.854;13.778;2023-03-20T06:08:28;10.80;99.90
18876;DHT22;9570;50.854;13.778;2023-03-20T06:10:54;10.80;99.90
18876;DHT22;9570;50.854;13.778;2023-03-20T06:13:20;10.90;99.90
18876;DHT22;9570;50.854;13.778;2023-03-20T06:15:46;10.80;99.90
18876;DHT22;9570;50.854;13.778;2023-03-20T06:18:11;10.80;99.90
18876;DHT22;9570;50.854;13.778;2023-03-20T06:20:37;10.70;99.90
18876;DHT22;9570;50.854;13.778;2023-03-20T06:23:02;10.80;99.90
18876;DHT22;9570;50.854;13.778;2023-03-20T06:25:27;10.80;99.90
18876;DHT22;9570;50.854;13.778;2023-03-20T06:27:53;10.90;99.90
18876;DHT22;9570;50.854;13.778;2023-03-20T06:30:18;10.90;99.90
18876;DHT22;9570;50.854;13.778;2023-03-20T06:32:44;10.90;99.90
18876;DHT22;9570;50.854;13.778;2023-03-20T06:35:11;11.00;99.90
18876;DHT22;9570;50.854;13.778;2023-03-20T06:37:37;11.10;99.90
18876;DHT22;9570;50.854;13.778;2023-03-20T06:40:04;11.20;99.90
18876;DHT22;9570;50.854;13.778;2023-03-20T06:42:30;11.30;99.90
18876;DHT22;9570;50.854;13.778;2023-03-20T06:44:55;11.50;99.90
18876;DHT22;9570;50.854;13.778;2023-03-20T06:47:21;11.60;99.90
18876;DHT22;9570;50.854;13.778;2023-03-20T06:49:47;11.60;99.90
18876;DHT22;9570;50.854;13.778;2023-03-20T06:52:15;11.60;99.90
18876;DHT22;9570;50.854;13.778;2023-03-20T06:54:41;11.70;99.90
18876;DHT22;9570;50.854;13.778;2023-03-20T06:57:07;11.90;99.90
18876;DHT22;9570;50.854;13.778;2023-03-20T06:59:33;12.00;99.90
18876;DHT22;9570;50.854;13.778;2023-03-20T07:01:58;11.70;99.90
18876;DHT22;9570;50.854;13.778;2023-03-20T07:04:24;11.70;99.90
18876;DHT22;9570;50.854;13.778;2023-03-20T07:06:50;11.60;99.90
18876;DHT22;9570;50.854;13.778;2023-03-20T07:09:16;11.80;99.90
18876;DHT22;9570;50.854;13.778;2023-03-20T07:11:42;12.30;99.90
18876;DHT22;9570;50.854;13.778;2023-03-20T07:14:09;12.30;99.90
18876;DHT22;9570;50.854;13.778;2023-03-20T07:16:34;12.00;99.90
18876;DHT22;9570;50.854;13.778;2023-03-20T07:19:00;12.20;99.90
18876;DHT22;9570;50.854;13.778;2023-03-20T07:21:26;12.20;99.90
18876;DHT22;9570;50.854;13.778;2023-03-20T07:23:52;12.30;99.90
18876;DHT22;9570;50.854;13.778;2023-03-20T07:26:18;12.20;99.90
18876;DHT22;9570;50.854;13.778;2023-03-20T07:28:43;11.90;99.90
18876;DHT22;9570;50.854;13.778;2023-03-20T07:31:21;11.80;99.90
18876;DHT22;9570;50.854;13.778;2023-03-20T07:33:47;11.60;99.90
18876;DHT22;9570;50.854;13.778;2023-03-20T07:36:13;11.50;99.90
18876;DHT22;9570;50.854;13.778;2023-03-20T07:38:38;11.50;99.90
18876;DHT22;9570;50.854;13.778;2023-03-20T07:41:03;11.70;99.90
18876;DHT22;9570;50.854;13.778;2023-03-20T07:43:29;11.80;99.90
18876;DHT22;9570;50.854;13.778;2023-03-20T07:45:54;11.80;99.90
18876;DHT22;9570;50.854;13.778;2023-03-20T07:48:20;12.00;99.90
18876;DHT22;9570;50.854;13.778;2023-03-20T07:50:46;11.90;99.90
18876;DHT22;9570;50.854;13.778;2023-03-20T07:53:11;11.90;99.90
18876;DHT22;9570;50.854;13.778;2023-03-20T07:55:36;12.00;99.90
18876;DHT22;9570;50.854;13.778;2023-03-20T07:58:02;12.00;99.90
18876;DHT22;9570;50.854;13.778;2023-03-20T08:00:27;12.00;99.90
18876;DHT22;9570;50.854;13.778;2023-03-20T08:02:53;11.80;99.90
18876;DHT22;9570;50.854;13.778;2023-03-20T08:05:21;11.80;99.90
18876;DHT22;9570;50.854;13.778;2023-03-20T08:07:46;12.00;99.90
18876;DHT22;9570;50.854;13.778;2023-03-20T08:10:12;12.10;99.90
18876;DHT22;9570;50.854;13.778;2023-03-20T08:12:37;12.20;99.90
18876;DHT22;9570;50.854;13.778;2023-03-20T08:15:03;12.30;99.90
18876;DHT22;9570;50.854;13.778;2023-03-20T08:17:29;12.30;99.90
18876;DHT22;9570;50.854;13.778;2023-03-20T08:19:54;12.30;99.90
18876;DHT22;9570;50.854;13.778;2023-03-20T08:22:20;12.50;99.90
18876;DHT22;9570;50.854;13.778;2023-03-20T08:24:45;12.60;99.90
18876;DHT22;9570;50.854;13.778;2023-03-20T08:27:11;12.80;99.90
18876;DHT22;9570;50.854;13.778;2023-03-20T08:29:37;13.20;99.90
18876;DHT22;9570;50.854;13.778;2023-03-20T08:32:02;13.10;99.90
18876;DHT22;9570;50.854;13.778;2023-03-20T08:34:30;13.10;99.90
18876;DHT22;9570;50.854;13.778;2023-03-20T08:36:56;13.20;99.90
18876;DHT22;9570;50.854;13.778;2023-03-20T08:39:22;13.30;99.90
18876;DHT22;9570;50.854;13.778;2023-03-20T08:41:48;13.20;99.90
18876;DHT22;9570;50.854;13.778;2023-03-20T08:44:14;13.20;99.90
18876;DHT22;9570;50.854;13.778;2023-03-20T08:46:40;13.20;99.90
18876;DHT22;9570;50.854;13.778;2023-03-20T08:49:07;13.40;99.90
18876;DHT22;9570;50.854;13.778;2023-03-20T08:51:33;13.60;99.90
18876;DHT22;9570;50.854;13.778;2023-03-20T08:53:59;13.40;99.90
18876;DHT22;9570;50.854;13.778;2023-03-20T08:56:24;13.30;99.90
18876;DHT22;9570;50.854;13.778;2023-03-20T08:58:50;13.40;99.90
18876;DHT22;9570;50.854;13.778;2023-03-20T09:01:17;13.40;99.90
18876;DHT22;9570;50.854;13.778;2023-03-20T09:03:43;13.40;99.90
18876;DHT22;9570;50.854;13.778;2023-03-20T09:06:09;13.40;99.90
18876;DHT22;9570;50.854;13.778;2023-03-20T09:08:35;13.30;99.90
18876;DHT22;9570;50.854;13.778;2023-03-20T09:11:00;13.40;99.90
18876;DHT22;9570;50.854;13.778;2023-03-20T09:13:26;13.40;99.90
18876;DHT22;9570;50.854;13.778;2023-03-20T09:15:52;13.60;99.90
18876;DHT22;9570;50.854;13.778;2023-03-20T09:18:19;14.00;99.90
18876;DHT22;9570;50.854;13.778;2023-03-20T09:20:46;13.90;99.90
18876;DHT22;9570;50.854;13.778;2023-03-20T09:23:12;13.90;99.90
18876;DHT22;9570;50.854;13.778;2023-03-20T09:25:37;13.80;99.90
18876;DHT22;9570;50.854;13.778;2023-03-20T09:28:03;13.70;99.90
18876;DHT22;9570;50.854;13.778;2023-03-20T09:30:28;13.60;99.90
18876;DHT22;9570;50.854;13.778;2023-03-20T09:32:54;13.60;99.90
18876;DHT22;9570;50.854;13.778;2023-03-20T09:35:20;13.30;99.90
18876;DHT22;9570;50.854;13.778;2023-03-20T09:37:45;12.90;99.90
18876;DHT22;9570;50.854;13.778;2023-03-20T09:40:29;13.00;99.90
18876;DHT22;9570;50.854;13.778;2023-03-20T09:43:13;12.90;99.90
18876;DHT22;9570;50.854;13.778;2023-03-20T09:46:07;13.10;99.90
18876;DHT22;9570;50.854;13.778;2023-03-20T09:48:43;12.90;99.90
18876;DHT22;9570;50.854;13.778;2023-03-20T09:53:57;13.00;99.90
18876;DHT22;9570;50.854;13.778;2023-03-20T09:56:26;13.10;99.90
18876;DHT22;9570;50.854;13.778;2023-03-20T09:58:55;13.20;99.90
18876;DHT22;9570;50.854;13.778;2023-03-20T10:01:25;13.00;99.90
18876;DHT22;9570;50.854;13.778;2023-03-20T10:03:55;13.10;99.90
18876;DHT22;9570;50.854;13.778;2023-03-20T10:06:22;12.90;99.90
18876;DHT22;9570;50.854;13.778;2023-03-20T10:08:48;12.80;99.90
18876;DHT22;9570;50.854;13.778;2023-03-20T10:16:54;12.90;99.90
18876;DHT22;9570;50.854;13.778;2023-03-20T10:19:31;12.80;99.90
18876;DHT22;9570;50.854;13.778;2023-03-20T10:22:21;12.80;99.90
18876;DHT22;9570;50.854;13.778;2023-03-20T10:25:06;12.90;99.90
18876;DHT22;9570;50.854;13.778;2023-03-20T10:27:41;13.10;99.90
18876;DHT22;9570;50.854;13.778;2023-03-20T10:33:29;13.50;99.90
18876;DHT22;9570;50.854;13.778;2023-03-20T10:39:09;13.80;99.90
18876;DHT22;9570;50.854;13.778;2023-03-20T10:41:37;13.80;99.90
18876;DHT22;9570;50.854;13.778;2023-03-20T10:44:13;13.80;99.90
18876;DHT22;9570;50.854;13.778;2023-03-20T10:46:45;13.70;99.90
18876;DHT22;9570;50.854;13.778;2023-03-20T10:49:18;13.70;99.90
18876;DHT22;9570;50.854;13.778;2023-03-20T10:51:50;13.70;99.90
18876;DHT22;9570;50.854;13.778;2023-03-20T10:54:39;13.70;99.90
18876;DHT22;9570;50.854;13.778;2023-03-20T10:57:13;13.80;99.90
18876;DHT22;9570;50.854;13.778;2023-03-20T10:59:48;13.70;99.90
18876;DHT22;9570;50.854;13.778;2023-03-20T11:02:15;13.80;99.90
18876;DHT22;9570;50.854;13.778;2023-03-20T11:04:42;13.70;99.90
18876;DHT22;9570;50.854;13.778;2023-03-20T11:07:21;13.60;99.90
18876;DHT22;9570;50.854;13.778;2023-03-20T11:10:07;13.50;99.90
18876;DHT22;9570;50.854;13.778;2023-03-20T11:12:37;13.50;99.90
18876;DHT22;9570;50.854;13.778;2023-03-20T11:15:27;13.70;99.90
18876;DHT22;9570;50.854;13.778;2023-03-20T11:18:00;13.90;99.90
18876;DHT22;9570;50.854;13.778;2023-03-20T11:20:35;13.80;99.90
18876;DHT22;9570;50.854;13.778;2023-03-20T11:23:06;13.70;99.90
18876;DHT22;9570;50.854;13.778;2023-03-20T11:25:37;13.60;99.90
18876;DHT22;9570;50.854;13.778;2023-03-20T11:28:38;13.60;99.90
18876;DHT22;9570;50.854;13.778;2023-03-20T11:31:29;13.80;99.90
18876;DHT22;9570;50.854;13.778;2023-03-20T11:36:44;13.50;99.90
18876;DHT22;9570;50.854;13.778;2023-03-20T11:39:14;13.50;99.90
18876;DHT22;9570;50.854;13.778;2023-03-20T11:41:49;13.60;99.90
18876;DHT22;9570;50.854;13.778;2023-03-20T11:44:41;13.70;99.90
18876;DHT22;9570;50.854;13.778;2023-03-20T11:47:18;13.80;99.90
18876;DHT22;9570;50.854;13.778;2023-03-20T11:49:54;13.70;99.90
18876;DHT22;9570;50.854;13.778;2023-03-20T11:52:22;13.50;99.90
18876;DHT22;9570;50.854;13.778;2023-03-20T11:54:51;13.40;99.90
18876;DHT22;9570;50.854;13.778;2023-03-20T11:57:40;13.40;99.90
18876;DHT22;9570;50.854;13.778;2023-03-20T12:02:35;13.30;99.90
18876;DHT22;9570;50.854;13.778;2023-03-20T12:05:02;13.30;99.90
18876;DHT22;9570;50.854;13.778;2023-03-20T12:07:41;13.20;99.90
18876;DHT22;9570;50.854;13.778;2023-03-20T12:10:12;13.30;99.90
18876;DHT22;9570;50.854;13.778;2023-03-20T12:12:48;13.40;99.90
18876;DHT22;9570;50.854;13.778;2023-03-20T12:15:21;13.40;99.90
18876;DHT22;9570;50.854;13.778;2023-03-20T12:23:01;13.30;99.90
18876;DHT22;9570;50.854;13.778;2023-03-20T12:25:38;13.30;99.90
18876;DHT22;9570;50.854;13.778;2023-03-20T12:28:13;13.20;99.90
18876;DHT22;9570;50.854;13.778;2023-03-20T12:33:48;13.40;99.90
18876;DHT22;9570;50.854;13.778;2023-03-20T12:36:24;13.40;99.90
18876;DHT22;9570;50.854;13.778;2023-03-20T12:38:53;13.50;99.90
18876;DHT22;9570;50.854;13.778;2023-03-20T12:41:29;13.50;99.90
18876;DHT22;9570;50.854;13.778;2023-03-20T12:44:18;13.60;99.90
18876;DHT22;9570;50.854;13.778;2023-03-20T12:50:21;13.10;99.90
18876;DHT22;9570;50.854;13.778;2023-03-20T12:56:04;13.10;99.90
18876;DHT22;9570;50.854;13.778;2023-03-20T12:58:40;13.00;99.90
18876;DHT22;9570;50.854;13.778;2023-03-20T13:04:01;12.50;99.90
18876;DHT22;9570;50.854;13.778;2023-03-20T13:09:18;12.50;99.90
18876;DHT22;9570;50.854;13.778;2023-03-20T13:12:15;12.60;99.90
18876;DHT22;9570;50.854;13.778;2023-03-20T13:15:05;12.90;99.90
18876;DHT22;9570;50.854;13.778;2023-03-20T13:17:52;12.80;99.90
18876;DHT22;9570;50.854;13.778;2023-03-20T13:20:24;13.00;99.90
18876;DHT22;9570;50.854;13.778;2023-03-20T13:23:05;13.20;99.90
18876;DHT22;9570;50.854;13.778;2023-03-20T13:25:44;13.40;99.90
18876;DHT22;9570;50.854;13.778;2023-03-20T13:28:27;13.40;99.90
18876;DHT22;9570;50.854;13.778;2023-03-20T13:31:20;13.60;99.90
18876;DHT22;9570;50.854;13.778;2023-03-20T13:34:00;13.50;99.90
18876;DHT22;9570;50.854;13.778;2023-03-20T13:41:43;13.50;99.90
18876;DHT22;9570;50.854;13.778;2023-03-20T13:44:11;13.30;99.90
18876;DHT22;9570;50.854;13.778;2023-03-20T13:46:44;13.10;99.90
18876;DHT22;9570;50.854;13.778;2023-03-20T13:49:21;13.10;99.90
18876;DHT22;9570;50.854;13.778;2023-03-20T13:52:00;13.20;99.90
18876;DHT22;9570;50.854;13.778;2023-03-20T13:54:45;13.20;99.90
18876;DHT22;9570;50.854;13.778;2023-03-20T13:57:25;13.20;99.90
18876;DHT22;9570;50.854;13.778;2023-03-20T14:05:42;12.90;99.90
18876;DHT22;9570;50.854;13.778;2023-03-20T14:11:13;12.70;99.90
18876;DHT22;9570;50.854;13.778;2023-03-20T14:14:17;12.50;99.90
18876;DHT22;9570;50.854;13.778;2023-03-20T14:16:44;12.20;99.90
18876;DHT22;9570;50.854;13.778;2023-03-20T14:19:20;12.00;99.90
18876;DHT22;9570;50.854;13.778;2023-03-20T14:21:52;11.70;99.90
18876;DHT22;9570;50.854;13.778;2023-03-20T14:24:18;11.70;99.90
18876;DHT22;9570;50.854;13.778;2023-03-20T14:27:02;11.80;99.90
18876;DHT22;9570;50.854;13.778;2023-03-20T14:37:26;11.90;99.90
18876;DHT22;9570;50.854;13.778;2023-03-20T14:40:21;11.90;99.90
18876;DHT22;9570;50.854;13.778;2023-03-20T14:43:02;11.80;99.90
18876;DHT22;9570;50.854;13.778;2023-03-20T14:45:31;12.10;99.90
18876;DHT22;9570;50.854;13.778;2023-03-20T14:48:27;12.20;99.90
18876;DHT22;9570;50.854;13.778;2023-03-20T14:51:17;12.30;99.90
18876;DHT22;9570;50.854;13.778;2023-03-20T14:56:49;12.20;99.90
18876;DHT22;9570;50.854;13.778;2023-03-20T14:59:17;12.10;99.90
18876;DHT22;9570;50.854;13.778;2023-03-20T15:02:17;12.10;99.90
18876;DHT22;9570;50.854;13.778;2023-03-20T15:04:39;12.10;99.90
18876;DHT22;9570;50.854;13.778;2023-03-20T15:07:13;12.10;99.90
18876;DHT22;9570;50.854;13.778;2023-03-20T15:09:42;11.80;99.90
18876;DHT22;9570;50.854;13.778;2023-03-20T15:12:10;11.80;99.90
18876;DHT22;9570;50.854;13.778;2023-03-20T15:14:43;11.90;99.90
18876;DHT22;9570;50.854;13.778;2023-03-20T15:17:17;12.00;99.90
18876;DHT22;9570;50.854;13.778;2023-03-20T15:19:43;11.90;99.90
18876;DHT22;9570;50.854;13.778;2023-03-20T15:22:19;11.90;99.90
18876;DHT22;9570;50.854;13.778;2023-03-20T15:24:53;11.90;99.90
18876;DHT22;9570;50.854;13.778;2023-03-20T15:27:20;11.90;99.90
18876;DHT22;9570;50.854;13.778;2023-03-20T15:29:53;12.00;99.90
18876;DHT22;9570;50.854;13.778;2023-03-20T15:32:19;12.00;99.90
18876;DHT22;9570;50.854;13.778;2023-03-20T15:34:46;12.00;99.90
18876;DHT22;9570;50.854;13.778;2023-03-20T15:37:19;12.20;99.90
18876;DHT22;9570;50.854;13.778;2023-03-20T15:39:49;12.00;99.90
18876;DHT22;9570;50.854;13.778;2023-03-20T15:42:19;11.90;99.90
18876;DHT22;9570;50.854;13.778;2023-03-20T15:44:48;11.80;99.90
18876;DHT22;9570;50.854;13.778;2023-03-20T15:47:16;11.90;99.90
18876;DHT22;9570;50.854;13.778;2023-03-20T15:49:49;11.80;99.90
18876;DHT22;9570;50.854;13.778;2023-03-20T15:52:41;11.80;99.90
18876;DHT22;9570;50.854;13.778;2023-03-20T15:55:15;11.80;99.90
18876;DHT22;9570;50.854;13.778;2023-03-20T15:57:42;11.80;99.90
18876;DHT22;9570;50.854;13.778;2023-03-20T16:02:40;11.70;99.90
18876;DHT22;9570;50.854;13.778;2023-03-20T16:05:11;11.70;99.90
18876;DHT22;9570;50.854;13.778;2023-03-20T16:07:37;11.60;99.90
18876;DHT22;9570;50.854;13.778;2023-03-20T16:10:18;11.80;99.90
18876;DHT22;9570;50.854;13.778;2023-03-20T16:12:49;11.80;99.90
18876;DHT22;9570;50.854;13.778;2023-03-20T16:15:16;11.60;99.90
18876;DHT22;9570;50.854;13.778;2023-03-20T16:17:43;11.50;99.90
18876;DHT22;9570;50.854;13.778;2023-03-20T16:20:16;11.50;99.90
18876;DHT22;9570;50.854;13.778;2023-03-20T16:22:42;11.50;99.90
18876;DHT22;9570;50.854;13.778;2023-03-20T16:25:14;11.40;99.90
18876;DHT22;9570;50.854;13.778;2023-03-20T16:27:41;11.50;99.90
18876;DHT22;9570;50.854;13.778;2023-03-20T16:30:23;11.50;99.90
18876;DHT22;9570;50.854;13.778;2023-03-20T16:33:00;11.50;99.90
18876;DHT22;9570;50.854;13.778;2023-03-20T16:35:30;11.50;99.90
18876;DHT22;9570;50.854;13.778;2023-03-20T16:38:00;11.40;99.90
18876;DHT22;9570;50.854;13.778;2023-03-20T16:42:52;11.40;99.90
18876;DHT22;9570;50.854;13.778;2023-03-20T16:45:23;11.40;99.90
18876;DHT22;9570;50.854;13.778;2023-03-20T16:47:49;11.30;99.90
18876;DHT22;9570;50.854;13.778;2023-03-20T16:50:21;11.40;99.90
18876;DHT22;9570;50.854;13.778;2023-03-20T16:52:55;11.30;99.90
18876;DHT22;9570;50.854;13.778;2023-03-20T16:55:26;11.30;99.90
18876;DHT22;9570;50.854;13.778;2023-03-20T16:57:55;11.30;99.90
18876;DHT22;9570;50.854;13.778;2023-03-20T17:00:29;11.30;99.90
18876;DHT22;9570;50.854;13.778;2023-03-20T17:03:06;11.40;99.90
18876;DHT22;9570;50.854;13.778;2023-03-20T17:08:15;11.50;99.90
18876;DHT22;9570;50.854;13.778;2023-03-20T17:10:49;11.40;99.90
18876;DHT22;9570;50.854;13.778;2023-03-20T17:13:15;11.50;99.90
18876;DHT22;9570;50.854;13.778;2023-03-20T17:15:40;11.30;99.90
18876;DHT22;9570;50.854;13.778;2023-03-20T17:18:12;11.30;99.90
18876;DHT22;9570;50.854;13.778;2023-03-20T17:20:38;11.20;99.90
18876;DHT22;9570;50.854;13.778;2023-03-20T17:23:12;11.10;99.90
18876;DHT22;9570;50.854;13.778;2023-03-20T17:25:38;11.20;99.90
18876;DHT22;9570;50.854;13.778;2023-03-20T17:28:03;11.20;99.90
18876;DHT22;9570;50.854;13.778;2023-03-20T17:30:29;11.30;99.90
18876;DHT22;9570;50.854;13.778;2023-03-20T17:32:54;11.40;99.90